VLG7BD LEPA-LECO
Flight info
| Callsign | VLG7BD |
|---|---|
| Flight time | 1h 38m |
| Altitude | 25000 |
| Route | EPAMA N733 DESAT DCT LOMDA |
| Aircraft | A320/M-SDE3FGHIRWY/LB1 |
Departure
| Time | 2026-05-07 22:05 |
|---|---|
| Airport | Palma de Mallorca Airport (LEPA) |
Arrival
| Time | 2026-05-07 23:43 |
|---|---|
| Airport | A Coruña Airport (LECO) |
| Time | Latitude | Longitude | Altitude | Speed | Heading |
|---|---|---|---|---|---|
| 2026-05-07 21:33 | 39.54556 | 2.73322 | 34 ft | 0 kts | 347° |
| 2026-05-07 21:48 | 39.54552 | 2.73323 | 34 ft | 2 kts | 347° |
| 2026-05-07 21:48 | 39.54538 | 2.73327 | 34 ft | 2 kts | 346° |
| 2026-05-07 21:48 | 39.54523 | 2.73330 | 35 ft | 2 kts | 6° |
| 2026-05-07 21:49 | 39.54507 | 2.73326 | 35 ft | 2 kts | 22° |
| 2026-05-07 21:49 | 39.54494 | 2.73317 | 35 ft | 2 kts | 39° |
| 2026-05-07 21:49 | 39.54484 | 2.73303 | 35 ft | 1 kts | 55° |
| 2026-05-07 21:49 | 39.54480 | 2.73296 | 35 ft | 1 kts | 61° |
| 2026-05-07 21:50 | 39.54480 | 2.73293 | 35 ft | 0 kts | 60° |
| 2026-05-07 21:52 | 39.54495 | 2.73326 | 35 ft | 10 kts | 58° |
| 2026-05-07 21:53 | 39.54540 | 2.73421 | 36 ft | 13 kts | 59° |
| 2026-05-07 21:53 | 39.54597 | 2.73538 | 33 ft | 16 kts | 54° |
| 2026-05-07 21:53 | 39.54649 | 2.73655 | 32 ft | 13 kts | 66° |
| 2026-05-07 21:53 | 39.54697 | 2.73765 | 33 ft | 13 kts | 58° |
| 2026-05-07 21:54 | 39.54749 | 2.73869 | 33 ft | 13 kts | 55° |
| 2026-05-07 21:54 | 39.54802 | 2.73974 | 33 ft | 12 kts | 49° |
| 2026-05-07 21:54 | 39.54870 | 2.73983 | 34 ft | 7 kts | 332° |
| 2026-05-07 21:54 | 39.54912 | 2.73966 | 36 ft | 6 kts | 22° |
| 2026-05-07 21:55 | 39.54947 | 2.74000 | 37 ft | 6 kts | 30° |
| 2026-05-07 21:55 | 39.54991 | 2.73995 | 38 ft | 9 kts | 335° |
| 2026-05-07 21:55 | 39.55075 | 2.73931 | 41 ft | 18 kts | 329° |
| 2026-05-07 21:55 | 39.55213 | 2.73824 | 41 ft | 26 kts | 328° |
| 2026-05-07 21:56 | 39.55377 | 2.73693 | 31 ft | 29 kts | 328° |
| 2026-05-07 21:56 | 39.55535 | 2.73567 | 19 ft | 20 kts | 329° |
| 2026-05-07 21:56 | 39.55622 | 2.73505 | 15 ft | 11 kts | 348° |
| 2026-05-07 21:56 | 39.55685 | 2.73570 | 12 ft | 13 kts | 61° |
| 2026-05-07 21:57 | 39.55751 | 2.73710 | 9 ft | 24 kts | 59° |
| 2026-05-07 21:57 | 39.55847 | 2.73914 | 9 ft | 26 kts | 59° |
| 2026-05-07 21:57 | 39.55936 | 2.74101 | 13 ft | 21 kts | 58° |
| 2026-05-07 21:57 | 39.55996 | 2.74213 | 15 ft | 12 kts | 45° |
| 2026-05-07 21:58 | 39.56075 | 2.74288 | 13 ft | 15 kts | 33° |
| 2026-05-07 21:58 | 39.56137 | 2.74342 | 10 ft | 0 kts | 34° |
| 2026-05-07 21:58 | 39.56143 | 2.74347 | 10 ft | 5 kts | 34° |
| 2026-05-07 21:59 | 39.56195 | 2.74366 | 10 ft | 8 kts | 352° |
| 2026-05-07 21:59 | 39.56238 | 2.74320 | 10 ft | 6 kts | 274° |
| 2026-05-07 21:59 | 39.56230 | 2.74281 | 10 ft | 0 kts | 245° |
| 2026-05-07 22:04 | 39.56188 | 2.74184 | 11 ft | 42 kts | 239° |
| 2026-05-07 22:04 | 39.55886 | 2.73546 | 8 ft | 119 kts | 238° |
| 2026-05-07 22:04 | 39.55343 | 2.72399 | 69 ft | 174 kts | 239° |
| 2026-05-07 22:05 | 39.54691 | 2.71021 | 776 ft | 178 kts | 238° |
| 2026-05-07 22:05 | 39.54047 | 2.69607 | 1570 ft | 184 kts | 238° |
| 2026-05-07 22:05 | 39.53352 | 2.68108 | 2245 ft | 186 kts | 236° |
| 2026-05-07 22:05 | 39.52570 | 2.66573 | 2684 ft | 202 kts | 233° |
| 2026-05-07 22:06 | 39.51673 | 2.64915 | 3119 ft | 220 kts | 233° |
| 2026-05-07 22:06 | 39.50719 | 2.63130 | 3527 ft | 241 kts | 234° |
| 2026-05-07 22:06 | 39.49714 | 2.61200 | 4354 ft | 244 kts | 236° |
| 2026-05-07 22:06 | 39.48731 | 2.59284 | 5173 ft | 247 kts | 236° |
| 2026-05-07 22:07 | 39.47768 | 2.57396 | 5917 ft | 250 kts | 236° |
| 2026-05-07 22:07 | 39.46810 | 2.55511 | 6709 ft | 251 kts | 236° |
| 2026-05-07 22:07 | 39.45859 | 2.53641 | 7464 ft | 253 kts | 236° |
| 2026-05-07 22:07 | 39.44991 | 2.51581 | 8123 ft | 261 kts | 254° |
| 2026-05-07 22:08 | 39.44928 | 2.48996 | 8564 ft | 279 kts | 285° |
| 2026-05-07 22:08 | 39.45827 | 2.46428 | 9105 ft | 292 kts | 298° |
| 2026-05-07 22:08 | 39.46584 | 2.43767 | 9821 ft | 297 kts | 283° |
| 2026-05-07 22:08 | 39.47054 | 2.41008 | 10496 ft | 302 kts | 281° |
| 2026-05-07 22:09 | 39.47478 | 2.38204 | 10829 ft | 319 kts | 280° |
| 2026-05-07 22:09 | 39.47892 | 2.35270 | 11255 ft | 331 kts | 280° |
| 2026-05-07 22:09 | 39.48291 | 2.32343 | 11906 ft | 333 kts | 279° |
| 2026-05-07 22:09 | 39.48710 | 2.29207 | 12590 ft | 335 kts | 279° |
| 2026-05-07 22:10 | 39.49118 | 2.26115 | 13274 ft | 337 kts | 279° |
| 2026-05-07 22:10 | 39.49540 | 2.22910 | 13922 ft | 340 kts | 278° |
| 2026-05-07 22:10 | 39.49958 | 2.19709 | 14542 ft | 342 kts | 278° |
| 2026-05-07 22:10 | 39.50384 | 2.16458 | 15167 ft | 345 kts | 278° |
| 2026-05-07 22:11 | 39.50807 | 2.13206 | 15795 ft | 347 kts | 278° |
| 2026-05-07 22:11 | 39.51243 | 2.09857 | 16410 ft | 349 kts | 278° |
| 2026-05-07 22:11 | 39.51675 | 2.06517 | 16988 ft | 352 kts | 278° |
| 2026-05-07 22:11 | 39.52110 | 2.03148 | 17550 ft | 355 kts | 278° |
| 2026-05-07 22:12 | 39.52551 | 1.99743 | 18108 ft | 357 kts | 278° |
| 2026-05-07 22:12 | 39.53003 | 1.96216 | 18691 ft | 359 kts | 278° |
| 2026-05-07 22:12 | 39.53449 | 1.92738 | 19282 ft | 360 kts | 278° |
| 2026-05-07 22:12 | 39.53890 | 1.89283 | 19860 ft | 361 kts | 278° |
| 2026-05-07 22:13 | 39.54330 | 1.85841 | 20437 ft | 362 kts | 278° |
| 2026-05-07 22:13 | 39.54768 | 1.82402 | 20968 ft | 363 kts | 278° |
| 2026-05-07 22:13 | 39.55211 | 1.78913 | 21477 ft | 365 kts | 278° |
| 2026-05-07 22:13 | 39.55653 | 1.75429 | 21991 ft | 366 kts | 278° |
| 2026-05-07 22:14 | 39.56103 | 1.71880 | 22484 ft | 368 kts | 278° |
| 2026-05-07 22:14 | 39.56549 | 1.68350 | 22975 ft | 369 kts | 278° |
| 2026-05-07 22:14 | 39.56992 | 1.64834 | 23448 ft | 370 kts | 278° |
| 2026-05-07 22:14 | 39.57435 | 1.61283 | 23893 ft | 372 kts | 278° |
| 2026-05-07 22:15 | 39.57873 | 1.57777 | 24381 ft | 372 kts | 278° |
| 2026-05-07 22:15 | 39.58300 | 1.54349 | 24754 ft | 375 kts | 278° |
| 2026-05-07 22:15 | 39.58734 | 1.50859 | 25042 ft | 379 kts | 278° |
| 2026-05-07 22:15 | 39.59152 | 1.47484 | 25403 ft | 381 kts | 278° |
| 2026-05-07 22:16 | 39.59576 | 1.44064 | 25822 ft | 381 kts | 279° |
| 2026-05-07 22:16 | 39.59932 | 1.40683 | 26279 ft | 379 kts | 276° |
| 2026-05-07 22:16 | 39.60099 | 1.37174 | 26696 ft | 379 kts | 272° |
| 2026-05-07 22:16 | 39.60056 | 1.33621 | 27086 ft | 380 kts | 268° |
| 2026-05-07 22:17 | 39.59876 | 1.30120 | 27476 ft | 381 kts | 267° |
| 2026-05-07 22:17 | 39.59673 | 1.26477 | 27885 ft | 381 kts | 267° |
| 2026-05-07 22:17 | 39.59469 | 1.22828 | 28313 ft | 380 kts | 268° |
| 2026-05-07 22:17 | 39.59260 | 1.19186 | 28690 ft | 380 kts | 268° |
| 2026-05-07 22:18 | 39.59054 | 1.15568 | 29060 ft | 380 kts | 268° |
| 2026-05-07 22:18 | 39.58654 | 1.08564 | 29743 ft | 381 kts | 268° |
| 2026-05-07 22:18 | 39.58454 | 1.05074 | 30060 ft | 381 kts | 269° |
| 2026-05-07 22:19 | 39.58250 | 1.01527 | 30394 ft | 381 kts | 269° |
| 2026-05-07 22:19 | 39.58047 | 0.98077 | 31002 ft | 373 kts | 269° |
| 2026-05-07 22:19 | 39.57853 | 0.94783 | 31692 ft | 364 kts | 269° |
| 2026-05-07 22:19 | 39.57660 | 0.91495 | 32159 ft | 360 kts | 269° |
| 2026-05-07 22:20 | 39.57468 | 0.88226 | 32477 ft | 359 kts | 269° |
| 2026-05-07 22:20 | 39.57278 | 0.84981 | 32790 ft | 358 kts | 269° |
| 2026-05-07 22:20 | 39.57088 | 0.81781 | 33070 ft | 358 kts | 269° |
| 2026-05-07 22:20 | 39.56892 | 0.78526 | 33381 ft | 357 kts | 269° |
| 2026-05-07 22:21 | 39.56696 | 0.75274 | 33726 ft | 355 kts | 269° |
| 2026-05-07 22:21 | 39.56502 | 0.72080 | 34043 ft | 353 kts | 270° |
| 2026-05-07 22:21 | 39.56308 | 0.68842 | 34335 ft | 351 kts | 269° |
| 2026-05-07 22:21 | 39.56118 | 0.65712 | 34571 ft | 350 kts | 269° |
| 2026-05-07 22:22 | 39.55926 | 0.62567 | 34781 ft | 350 kts | 269° |
| 2026-05-07 22:22 | 39.55733 | 0.59431 | 34963 ft | 350 kts | 268° |
| 2026-05-07 22:22 | 39.55540 | 0.56280 | 35185 ft | 350 kts | 269° |
| 2026-05-07 22:22 | 39.55343 | 0.53146 | 35381 ft | 350 kts | 268° |
| 2026-05-07 22:23 | 39.55150 | 0.50034 | 35596 ft | 349 kts | 268° |
| 2026-05-07 22:23 | 39.54955 | 0.46911 | 35799 ft | 348 kts | 268° |
| 2026-05-07 22:23 | 39.54758 | 0.43789 | 35991 ft | 348 kts | 268° |
| 2026-05-07 22:23 | 39.54559 | 0.40656 | 36164 ft | 348 kts | 268° |
| 2026-05-07 22:24 | 39.54364 | 0.37577 | 36369 ft | 348 kts | 268° |
| 2026-05-07 22:24 | 39.54161 | 0.34451 | 36563 ft | 348 kts | 268° |
| 2026-05-07 22:24 | 39.53962 | 0.31341 | 36776 ft | 349 kts | 267° |
| 2026-05-07 22:24 | 39.53761 | 0.28206 | 36989 ft | 349 kts | 268° |
| 2026-05-07 22:25 | 39.53559 | 0.25067 | 36988 ft | 350 kts | 268° |
| 2026-05-07 22:25 | 39.53149 | 0.18727 | 37000 ft | 359 kts | 267° |
| 2026-05-07 22:26 | 39.52723 | 0.12227 | 37006 ft | 367 kts | 267° |
| 2026-05-07 22:26 | 39.52285 | 0.05611 | 37002 ft | 373 kts | 268° |
| 2026-05-07 22:27 | 39.51839 | -0.01071 | 37004 ft | 373 kts | 267° |
| 2026-05-07 22:27 | 39.51387 | -0.07762 | 37001 ft | 373 kts | 267° |
| 2026-05-07 22:28 | 39.50935 | -0.14418 | 37007 ft | 373 kts | 267° |
| 2026-05-07 22:28 | 39.50476 | -0.21093 | 37006 ft | 373 kts | 267° |
| 2026-05-07 22:29 | 39.50012 | -0.27768 | 37013 ft | 372 kts | 267° |
| 2026-05-07 22:29 | 39.49549 | -0.34415 | 37010 ft | 371 kts | 267° |
| 2026-05-07 22:30 | 39.49343 | -0.41061 | 37013 ft | 371 kts | 274° |
| 2026-05-07 22:30 | 39.50002 | -0.47708 | 37020 ft | 370 kts | 282° |
| 2026-05-07 22:31 | 39.51511 | -0.54071 | 37016 ft | 372 kts | 290° |
| 2026-05-07 22:31 | 39.53838 | -0.60109 | 37017 ft | 375 kts | 296° |
| 2026-05-07 22:32 | 39.56398 | -0.65972 | 37014 ft | 376 kts | 296° |
| 2026-05-07 22:32 | 39.58998 | -0.71887 | 37014 ft | 376 kts | 296° |
| 2026-05-07 22:33 | 39.61582 | -0.77755 | 37018 ft | 376 kts | 296° |
| 2026-05-07 22:33 | 39.64183 | -0.83678 | 37021 ft | 376 kts | 296° |
| 2026-05-07 22:34 | 39.66770 | -0.89583 | 37028 ft | 377 kts | 296° |
| 2026-05-07 22:34 | 39.69339 | -0.95447 | 37023 ft | 376 kts | 296° |
| 2026-05-07 22:35 | 39.71921 | -1.01361 | 37027 ft | 376 kts | 296° |
| 2026-05-07 22:35 | 39.74488 | -1.07271 | 37030 ft | 377 kts | 296° |
| 2026-05-07 22:36 | 39.77069 | -1.13194 | 37030 ft | 377 kts | 296° |
| 2026-05-07 22:36 | 39.79662 | -1.19128 | 37030 ft | 378 kts | 296° |
| 2026-05-07 22:37 | 39.82233 | -1.25042 | 37023 ft | 377 kts | 295° |
| 2026-05-07 22:37 | 39.84813 | -1.30993 | 37018 ft | 377 kts | 296° |
| 2026-05-07 22:38 | 39.87378 | -1.36935 | 37017 ft | 377 kts | 296° |
| 2026-05-07 22:38 | 39.89946 | -1.42896 | 37018 ft | 378 kts | 296° |
| 2026-05-07 22:39 | 39.92520 | -1.48865 | 37014 ft | 378 kts | 295° |
| 2026-05-07 22:39 | 39.95097 | -1.54850 | 37013 ft | 377 kts | 295° |
| 2026-05-07 22:40 | 39.97647 | -1.60797 | 37018 ft | 377 kts | 296° |
| 2026-05-07 22:40 | 40.00209 | -1.66782 | 37025 ft | 378 kts | 295° |
| 2026-05-07 22:41 | 40.02768 | -1.72767 | 37020 ft | 378 kts | 295° |
| 2026-05-07 22:41 | 40.05309 | -1.78733 | 37023 ft | 378 kts | 295° |
| 2026-05-07 22:42 | 40.07853 | -1.84716 | 37020 ft | 378 kts | 295° |
| 2026-05-07 22:42 | 40.10396 | -1.90715 | 37025 ft | 376 kts | 295° |
| 2026-05-07 22:43 | 40.12939 | -1.96715 | 37019 ft | 377 kts | 295° |
| 2026-05-07 22:43 | 40.15466 | -2.02676 | 37030 ft | 378 kts | 295° |
| 2026-05-07 22:44 | 40.18027 | -2.08680 | 37027 ft | 377 kts | 295° |
| 2026-05-07 22:44 | 40.20570 | -2.14656 | 37020 ft | 378 kts | 295° |
| 2026-05-07 22:45 | 40.23112 | -2.20672 | 37016 ft | 378 kts | 295° |
| 2026-05-07 22:45 | 40.25651 | -2.26723 | 37012 ft | 379 kts | 295° |
| 2026-05-07 22:46 | 40.28182 | -2.32772 | 37008 ft | 380 kts | 295° |
| 2026-05-07 22:46 | 40.30700 | -2.38807 | 37009 ft | 379 kts | 295° |
| 2026-05-07 22:47 | 40.33235 | -2.44892 | 37008 ft | 380 kts | 295° |
| 2026-05-07 22:47 | 40.35753 | -2.50942 | 37011 ft | 381 kts | 294° |
| 2026-05-07 22:48 | 40.38254 | -2.57046 | 37007 ft | 381 kts | 294° |
| 2026-05-07 22:48 | 40.40682 | -2.63220 | 37000 ft | 380 kts | 294° |
| 2026-05-07 22:49 | 40.43091 | -2.69367 | 37004 ft | 380 kts | 293° |
| 2026-05-07 22:49 | 40.45513 | -2.75553 | 36998 ft | 381 kts | 293° |
| 2026-05-07 22:50 | 40.47935 | -2.81750 | 36998 ft | 381 kts | 293° |
| 2026-05-07 22:50 | 40.50348 | -2.87937 | 37004 ft | 382 kts | 293° |
| 2026-05-07 22:51 | 40.52774 | -2.94171 | 37006 ft | 382 kts | 293° |
| 2026-05-07 22:51 | 40.55177 | -3.00354 | 36994 ft | 383 kts | 293° |
| 2026-05-07 22:52 | 40.57600 | -3.06605 | 36997 ft | 383 kts | 293° |
| 2026-05-07 22:52 | 40.60019 | -3.12848 | 36997 ft | 383 kts | 293° |
| 2026-05-07 22:53 | 40.62421 | -3.19075 | 36994 ft | 384 kts | 292° |
| 2026-05-07 22:53 | 40.64847 | -3.25373 | 36989 ft | 384 kts | 293° |
| 2026-05-07 22:54 | 40.67266 | -3.31666 | 36987 ft | 385 kts | 293° |
| 2026-05-07 22:54 | 40.69680 | -3.37957 | 36988 ft | 386 kts | 293° |
| 2026-05-07 22:55 | 40.72100 | -3.44278 | 36983 ft | 386 kts | 293° |
| 2026-05-07 22:55 | 40.74509 | -3.50582 | 36982 ft | 386 kts | 293° |
| 2026-05-07 22:56 | 40.76927 | -3.56928 | 36988 ft | 388 kts | 293° |
| 2026-05-07 22:56 | 40.79356 | -3.63315 | 36994 ft | 388 kts | 292° |
| 2026-05-07 22:57 | 40.81766 | -3.69665 | 36993 ft | 388 kts | 292° |
| 2026-05-07 22:57 | 40.84166 | -3.76009 | 36988 ft | 388 kts | 292° |
| 2026-05-07 22:58 | 40.86583 | -3.82404 | 36989 ft | 389 kts | 292° |
| 2026-05-07 22:58 | 40.88996 | -3.88802 | 36991 ft | 389 kts | 292° |
| 2026-05-07 22:59 | 40.91408 | -3.95214 | 36991 ft | 391 kts | 292° |
| 2026-05-07 22:59 | 40.93824 | -4.01654 | 36988 ft | 391 kts | 292° |
| 2026-05-07 23:00 | 40.96223 | -4.08069 | 36988 ft | 391 kts | 292° |
| 2026-05-07 23:00 | 40.98642 | -4.14544 | 36976 ft | 392 kts | 292° |
| 2026-05-07 23:01 | 41.01045 | -4.20991 | 36975 ft | 392 kts | 292° |
| 2026-05-07 23:01 | 41.03468 | -4.27487 | 36970 ft | 394 kts | 292° |
| 2026-05-07 23:02 | 41.05874 | -4.33952 | 36968 ft | 393 kts | 292° |
| 2026-05-07 23:02 | 41.08282 | -4.40445 | 36967 ft | 393 kts | 292° |
| 2026-05-07 23:03 | 41.10693 | -4.46963 | 36958 ft | 393 kts | 292° |
| 2026-05-07 23:03 | 41.13105 | -4.53499 | 36954 ft | 394 kts | 291° |
| 2026-05-07 23:04 | 41.15491 | -4.59989 | 36958 ft | 394 kts | 292° |
| 2026-05-07 23:04 | 41.17903 | -4.66544 | 36964 ft | 394 kts | 291° |
| 2026-05-07 23:05 | 41.20299 | -4.73076 | 36954 ft | 396 kts | 291° |
| 2026-05-07 23:05 | 41.22703 | -4.79655 | 36951 ft | 395 kts | 291° |
| 2026-05-07 23:06 | 41.25086 | -4.86192 | 36951 ft | 397 kts | 291° |
| 2026-05-07 23:06 | 41.27493 | -4.92810 | 36946 ft | 397 kts | 291° |
| 2026-05-07 23:07 | 41.29893 | -4.99421 | 36943 ft | 397 kts | 291° |
| 2026-05-07 23:07 | 41.32283 | -5.06003 | 36942 ft | 398 kts | 291° |
| 2026-05-07 23:08 | 41.34680 | -5.12633 | 36944 ft | 399 kts | 291° |
| 2026-05-07 23:08 | 41.37083 | -5.19299 | 36943 ft | 398 kts | 291° |
| 2026-05-07 23:09 | 41.39472 | -5.25939 | 36935 ft | 399 kts | 291° |
| 2026-05-07 23:09 | 41.41856 | -5.32586 | 36937 ft | 400 kts | 290° |
| 2026-05-07 23:10 | 41.44247 | -5.39268 | 36936 ft | 400 kts | 291° |
| 2026-05-07 23:10 | 41.46635 | -5.45957 | 36933 ft | 401 kts | 290° |
| 2026-05-07 23:11 | 41.49020 | -5.52659 | 36925 ft | 401 kts | 290° |
| 2026-05-07 23:11 | 41.51389 | -5.59313 | 36923 ft | 402 kts | 291° |
| 2026-05-07 23:12 | 41.54132 | -5.65874 | 36930 ft | 406 kts | 296° |
| 2026-05-07 23:12 | 41.57323 | -5.72139 | 36928 ft | 407 kts | 299° |
| 2026-05-07 23:13 | 41.60650 | -5.78498 | 36934 ft | 408 kts | 299° |
| 2026-05-07 23:13 | 41.63932 | -5.84781 | 36928 ft | 409 kts | 299° |
| 2026-05-07 23:14 | 41.67206 | -5.91065 | 36935 ft | 410 kts | 299° |
| 2026-05-07 23:14 | 41.70461 | -5.97329 | 36931 ft | 411 kts | 299° |
| 2026-05-07 23:15 | 41.73727 | -6.03628 | 36928 ft | 411 kts | 299° |
| 2026-05-07 23:15 | 41.76991 | -6.09935 | 36930 ft | 412 kts | 299° |
| 2026-05-07 23:16 | 41.80334 | -6.16148 | 36932 ft | 415 kts | 303° |
| 2026-05-07 23:16 | 41.84187 | -6.22002 | 36929 ft | 421 kts | 309° |
| 2026-05-07 23:17 | 41.88520 | -6.27301 | 36927 ft | 425 kts | 315° |
| 2026-05-07 23:17 | 41.93190 | -6.32198 | 36924 ft | 427 kts | 316° |
| 2026-05-07 23:18 | 41.97897 | -6.37074 | 36919 ft | 427 kts | 316° |
| 2026-05-07 23:18 | 42.02594 | -6.41954 | 36919 ft | 427 kts | 316° |
| 2026-05-07 23:19 | 42.07293 | -6.46848 | 36919 ft | 427 kts | 316° |
| 2026-05-07 23:19 | 42.12032 | -6.51799 | 36916 ft | 428 kts | 316° |
| 2026-05-07 23:20 | 42.16748 | -6.56735 | 36881 ft | 428 kts | 316° |
| 2026-05-07 23:20 | 42.19080 | -6.59179 | 36374 ft | 428 kts | 316° |
| 2026-05-07 23:20 | 42.21440 | -6.61655 | 35799 ft | 426 kts | 316° |
| 2026-05-07 23:20 | 42.23789 | -6.64124 | 35147 ft | 427 kts | 317° |
| 2026-05-07 23:21 | 42.26138 | -6.66598 | 34445 ft | 429 kts | 316° |
| 2026-05-07 23:21 | 42.28466 | -6.69050 | 33713 ft | 429 kts | 317° |
| 2026-05-07 23:21 | 42.30864 | -6.71573 | 32974 ft | 430 kts | 317° |
| 2026-05-07 23:21 | 42.33241 | -6.74080 | 32232 ft | 431 kts | 317° |
| 2026-05-07 23:22 | 42.35613 | -6.76583 | 31520 ft | 431 kts | 317° |
| 2026-05-07 23:22 | 42.37976 | -6.79079 | 30780 ft | 432 kts | 317° |
| 2026-05-07 23:22 | 42.40360 | -6.81600 | 30071 ft | 432 kts | 317° |
| 2026-05-07 23:22 | 42.42712 | -6.84090 | 29606 ft | 427 kts | 317° |
| 2026-05-07 23:23 | 42.45031 | -6.86545 | 29090 ft | 424 kts | 318° |
| 2026-05-07 23:23 | 42.47363 | -6.89019 | 28570 ft | 421 kts | 318° |
| 2026-05-07 23:23 | 42.49688 | -6.91488 | 28046 ft | 418 kts | 319° |
| 2026-05-07 23:23 | 42.52003 | -6.93952 | 27522 ft | 416 kts | 319° |
| 2026-05-07 23:24 | 42.54252 | -6.96346 | 26999 ft | 413 kts | 319° |
| 2026-05-07 23:24 | 42.56538 | -6.98779 | 26475 ft | 411 kts | 320° |
| 2026-05-07 23:24 | 42.58777 | -7.01166 | 25943 ft | 409 kts | 320° |
| 2026-05-07 23:24 | 42.61018 | -7.03557 | 25417 ft | 407 kts | 320° |
| 2026-05-07 23:25 | 42.63226 | -7.05915 | 24881 ft | 406 kts | 320° |
| 2026-05-07 23:25 | 42.65444 | -7.08285 | 24350 ft | 404 kts | 321° |
| 2026-05-07 23:25 | 42.67650 | -7.10646 | 23823 ft | 403 kts | 321° |
| 2026-05-07 23:25 | 42.69852 | -7.13005 | 23282 ft | 402 kts | 321° |
| 2026-05-07 23:26 | 42.72043 | -7.15349 | 22762 ft | 402 kts | 321° |
| 2026-05-07 23:26 | 42.74244 | -7.17705 | 22256 ft | 400 kts | 321° |
| 2026-05-07 23:26 | 42.76433 | -7.20053 | 21757 ft | 399 kts | 321° |
| 2026-05-07 23:26 | 42.78608 | -7.22391 | 21261 ft | 398 kts | 321° |
| 2026-05-07 23:27 | 42.82954 | -7.27075 | 20245 ft | 396 kts | 319° |
| 2026-05-07 23:27 | 42.85006 | -7.29595 | 19749 ft | 394 kts | 313° |
| 2026-05-07 23:27 | 42.86823 | -7.32353 | 19268 ft | 392 kts | 307° |
| 2026-05-07 23:28 | 42.88481 | -7.35303 | 18791 ft | 390 kts | 304° |
| 2026-05-07 23:28 | 42.90088 | -7.38265 | 18307 ft | 388 kts | 304° |
| 2026-05-07 23:28 | 42.91694 | -7.41243 | 17801 ft | 387 kts | 304° |
| 2026-05-07 23:28 | 42.93292 | -7.44204 | 17298 ft | 386 kts | 304° |
| 2026-05-07 23:29 | 42.94876 | -7.47137 | 16793 ft | 385 kts | 304° |
| 2026-05-07 23:29 | 42.96481 | -7.50103 | 16290 ft | 384 kts | 304° |
| 2026-05-07 23:29 | 42.98084 | -7.53063 | 15804 ft | 382 kts | 304° |
| 2026-05-07 23:29 | 42.99680 | -7.56010 | 15312 ft | 381 kts | 304° |
| 2026-05-07 23:30 | 43.01241 | -7.58896 | 14827 ft | 379 kts | 304° |
| 2026-05-07 23:30 | 43.02821 | -7.61814 | 14341 ft | 378 kts | 304° |
| 2026-05-07 23:30 | 43.04369 | -7.64677 | 13847 ft | 376 kts | 304° |
| 2026-05-07 23:30 | 43.05921 | -7.67548 | 13386 ft | 374 kts | 303° |
| 2026-05-07 23:31 | 43.07489 | -7.70451 | 12875 ft | 373 kts | 303° |
| 2026-05-07 23:31 | 43.09032 | -7.73316 | 12398 ft | 371 kts | 303° |
| 2026-05-07 23:31 | 43.10548 | -7.76129 | 11930 ft | 367 kts | 303° |
| 2026-05-07 23:31 | 43.12029 | -7.78878 | 11468 ft | 352 kts | 303° |
| 2026-05-07 23:32 | 43.13467 | -7.81549 | 11006 ft | 344 kts | 303° |
| 2026-05-07 23:32 | 43.14884 | -7.84192 | 10574 ft | 342 kts | 303° |
| 2026-05-07 23:32 | 43.16283 | -7.86803 | 10230 ft | 337 kts | 303° |
| 2026-05-07 23:32 | 43.17648 | -7.89349 | 10052 ft | 327 kts | 303° |
| 2026-05-07 23:33 | 43.18974 | -7.91825 | 9921 ft | 316 kts | 303° |
| 2026-05-07 23:33 | 43.20253 | -7.94217 | 9781 ft | 307 kts | 303° |
| 2026-05-07 23:33 | 43.21516 | -7.96582 | 9418 ft | 307 kts | 303° |
| 2026-05-07 23:33 | 43.22777 | -7.98953 | 9043 ft | 307 kts | 303° |
| 2026-05-07 23:34 | 43.24030 | -8.01306 | 8686 ft | 306 kts | 304° |
| 2026-05-07 23:34 | 43.25284 | -8.03661 | 8359 ft | 304 kts | 304° |
| 2026-05-07 23:34 | 43.26532 | -8.06002 | 8090 ft | 300 kts | 304° |
| 2026-05-07 23:34 | 43.27752 | -8.08292 | 7690 ft | 302 kts | 304° |
| 2026-05-07 23:35 | 43.28990 | -8.10620 | 7392 ft | 299 kts | 304° |
| 2026-05-07 23:35 | 43.30230 | -8.12924 | 7130 ft | 295 kts | 308° |
| 2026-05-07 23:35 | 43.31775 | -8.14702 | 6840 ft | 292 kts | 334° |
| 2026-05-07 23:35 | 43.33738 | -8.15387 | 6566 ft | 287 kts | 1° |
| 2026-05-07 23:36 | 43.35729 | -8.14971 | 6300 ft | 280 kts | 20° |
| 2026-05-07 23:36 | 43.37538 | -8.14000 | 6005 ft | 277 kts | 22° |
| 2026-05-07 23:36 | 43.39375 | -8.13258 | 5631 ft | 274 kts | 12° |
| 2026-05-07 23:36 | 43.41269 | -8.13023 | 5287 ft | 272 kts | 0° |
| 2026-05-07 23:37 | 43.43147 | -8.13295 | 5030 ft | 269 kts | 349° |
| 2026-05-07 23:37 | 43.44944 | -8.14013 | 4788 ft | 266 kts | 339° |
| 2026-05-07 23:37 | 43.46590 | -8.15095 | 4560 ft | 262 kts | 330° |
| 2026-05-07 23:37 | 43.48095 | -8.16503 | 4337 ft | 259 kts | 321° |
| 2026-05-07 23:38 | 43.49421 | -8.18184 | 4117 ft | 255 kts | 311° |
| 2026-05-07 23:38 | 43.50187 | -8.20301 | 3865 ft | 250 kts | 275° |
| 2026-05-07 23:38 | 43.49875 | -8.22583 | 3619 ft | 242 kts | 236° |
| 2026-05-07 23:38 | 43.48654 | -8.24024 | 3379 ft | 232 kts | 197° |
| 2026-05-07 23:39 | 43.47077 | -8.24276 | 3177 ft | 225 kts | 179° |
| 2026-05-07 23:39 | 43.45549 | -8.24615 | 3045 ft | 221 kts | 204° |
| 2026-05-07 23:39 | 43.44260 | -8.25701 | 3018 ft | 212 kts | 214° |
| 2026-05-07 23:39 | 43.43098 | -8.26880 | 3035 ft | 197 kts | 215° |
| 2026-05-07 23:40 | 43.42010 | -8.27956 | 2841 ft | 186 kts | 213° |
| 2026-05-07 23:40 | 43.40953 | -8.28917 | 2601 ft | 173 kts | 210° |
| 2026-05-07 23:40 | 43.39940 | -8.29767 | 2349 ft | 164 kts | 209° |
| 2026-05-07 23:40 | 43.38987 | -8.30543 | 2119 ft | 155 kts | 208° |
| 2026-05-07 23:41 | 43.38082 | -8.31279 | 1904 ft | 147 kts | 209° |
| 2026-05-07 23:41 | 43.37209 | -8.31991 | 1722 ft | 145 kts | 209° |
| 2026-05-07 23:41 | 43.36337 | -8.32704 | 1541 ft | 144 kts | 209° |
| 2026-05-07 23:41 | 43.35469 | -8.33415 | 1353 ft | 143 kts | 209° |
| 2026-05-07 23:42 | 43.34607 | -8.34121 | 1160 ft | 143 kts | 210° |
| 2026-05-07 23:42 | 43.33737 | -8.34834 | 960 ft | 142 kts | 210° |
| 2026-05-07 23:42 | 43.32879 | -8.35543 | 765 ft | 142 kts | 210° |
| 2026-05-07 23:42 | 43.32032 | -8.36245 | 574 ft | 142 kts | 211° |
| 2026-05-07 23:43 | 43.31171 | -8.36939 | 374 ft | 141 kts | 210° |
| 2026-05-07 23:43 | 43.30335 | -8.37622 | 298 ft | 130 kts | 211° |
| 2026-05-07 23:43 | 43.29814 | -8.38045 | 311 ft | 43 kts | 211° |
| 2026-05-07 23:43 | 43.29615 | -8.38209 | 309 ft | 22 kts | 207° |
| 2026-05-07 23:44 | 43.29534 | -8.38324 | 308 ft | 11 kts | 243° |
| 2026-05-07 23:44 | 43.29476 | -8.38348 | 306 ft | 10 kts | 106° |
| 2026-05-07 23:44 | 43.29525 | -8.38285 | 308 ft | 10 kts | 34° |
| 2026-05-07 23:44 | 43.29594 | -8.38226 | 309 ft | 12 kts | 31° |
| 2026-05-07 23:45 | 43.29671 | -8.38162 | 310 ft | 15 kts | 30° |
| 2026-05-07 23:45 | 43.29779 | -8.38075 | 311 ft | 20 kts | 31° |
| 2026-05-07 23:45 | 43.29884 | -8.37990 | 310 ft | 10 kts | 23° |
| 2026-05-07 23:45 | 43.29950 | -8.38019 | 310 ft | 8 kts | 311° |
| 2026-05-07 23:46 | 43.29959 | -8.38034 | 311 ft | 0 kts | 311° |
| 2026-05-07 23:46 | 43.29965 | -8.38043 | 311 ft | 2 kts | 314° |
| 2026-05-07 23:46 | 43.30018 | -8.38074 | 311 ft | 10 kts | 353° |
| 2026-05-07 23:46 | 43.30095 | -8.38054 | 310 ft | 12 kts | 27° |
| 2026-05-07 23:47 | 43.30154 | -8.38010 | 309 ft | 6 kts | 20° |
| 2026-05-07 23:47 | 43.30181 | -8.38027 | 309 ft | 2 kts | 316° |
| 2026-05-07 23:47 | 43.30184 | -8.38030 | 309 ft | 0 kts | 309° |
| 2026-05-07 23:47 | 43.30189 | -8.38040 | 309 ft | 1 kts | 310° |
| 2026-05-07 23:48 | 43.30199 | -8.38044 | 309 ft | 1 kts | 14° |
| 2026-05-07 23:48 | 43.30203 | -8.38039 | 309 ft | 1 kts | 45° |
| 2026-05-07 23:48 | 43.30204 | -8.38038 | 309 ft | 0 kts | 45° |